Time;durP1;ratioP1;P1;durP2;ratioP2;P2;SDS_P1;SDS_P2;PMS_P1;PMS_P2;Temp;Humidity;BMP_temperature;BMP_pressure;BME280_temperature;BME280_humidity;BME280_pressure;Samples;Min_cycle;Max_cycle;Signal;HPM_P1;HPM_P2
2022/10/13 00:00:11;;;;;;;15.02;10.85;;;;;;;;;;617944;23;848;-64
2022/10/13 00:00:26;;;;;;;15.07;10.70;;;;;;;;;;619308;23;937;-65
2022/10/13 00:00:43;;;;;;;14.82;10.82;;;;;;;;;;616811;23;864;-65
2022/10/13 00:00:58;;;;;;;16.15;11.05;;;;;;;;;;619271;23;1224;-66
2022/10/13 00:01:17;;;;;;;16.57;11.53;;;;;;;;;;621823;23;954;-65
2022/10/13 00:01:33;;;;;;;16.00;11.88;;;;;;;;;;625415;23;791;-65
2022/10/13 00:01:48;;;;;;;14.67;11.20;;;;;;;;;;625506;23;927;-65
2022/10/13 00:02:03;;;;;;;15.20;10.70;;;;;;;;;;627688;23;962;-65
2022/10/13 00:02:18;;;;;;;15.73;10.68;;;;;;;;;;626728;23;1345;-65
2022/10/13 00:02:34;;;;;;;14.27;10.83;;;;;;;;;;627971;23;978;-65
2022/10/13 00:02:49;;;;;;;14.57;11.13;;;;;;;;;;628338;23;860;-65
2022/10/13 00:03:04;;;;;;;14.17;10.97;;;;;;;;;;630107;23;969;-65
2022/10/13 00:03:20;;;;;;;14.02;11.00;;;;;;;;;;625533;23;1197;-65
2022/10/13 00:03:38;;;;;;;13.97;11.33;;;;;;;;;;627587;23;883;-65
2022/10/13 00:03:54;;;;;;;15.10;11.48;;;;;;;;;;624236;23;1316;-65
2022/10/13 00:04:09;;;;;;;15.10;11.10;;;;;;;;;;625794;23;867;-65
2022/10/13 00:04:26;;;;;;;14.98;10.95;;;;;;;;;;627028;23;1006;-65
2022/10/13 00:04:41;;;;;;;15.90;11.05;;;;;;;;;;627406;23;1399;-65
2022/10/13 00:04:56;;;;;;;15.23;10.85;;;;;;;;;;626711;23;995;-65
2022/10/13 00:05:11;;;;;;;16.43;10.73;;;;;;;;;;628668;23;991;-65
2022/10/13 00:05:28;;;;;;;16.27;10.83;;;;;;;;;;629694;23;950;-65
2022/10/13 00:05:46;;;;;;;14.98;10.93;;;;;;;;;;628383;23;1379;-65
2022/10/13 00:06:04;;;;;;;15.52;11.15;;;;;;;;;;627053;23;1221;-65
2022/10/13 00:06:23;;;;;;;15.38;10.90;;;;;;;;;;627661;23;886;-65
2022/10/13 00:06:38;;;;;;;14.68;10.50;;;;;;;;;;624064;23;1260;-65
2022/10/13 00:06:54;;;;;;;13.90;10.47;;;;;;;;;;624537;23;891;-65
2022/10/13 00:07:09;;;;;;;14.10;10.23;;;;;;;;;;624118;23;951;-65
2022/10/13 00:07:24;;;;;;;15.07;10.63;;;;;;;;;;624764;23;927;-65
2022/10/13 00:07:39;;;;;;;16.60;11.17;;;;;;;;;;625767;23;833;-65
2022/10/13 00:07:56;;;;;;;17.70;11.30;;;;;;;;;;628478;23;934;-64
2022/10/13 00:08:12;;;;;;;16.92;11.25;;;;;;;;;;630399;23;928;-65
2022/10/13 00:08:29;;;;;;;15.32;11.10;;;;;;;;;;631750;23;1033;-65
2022/10/13 00:08:44;;;;;;;17.98;11.52;;;;;;;;;;633403;23;918;-66
2022/10/13 00:09:00;;;;;;;18.00;11.40;;;;;;;;;;633116;23;1192;-65
2022/10/13 00:09:15;;;;;;;16.00;11.10;;;;;;;;;;633208;23;985;-65
2022/10/13 00:09:30;;;;;;;14.57;10.80;;;;;;;;;;633992;23;885;-66
2022/10/13 00:09:45;;;;;;;13.37;10.90;;;;;;;;;;633875;23;881;-65
2022/10/13 00:10:01;;;;;;;14.43;10.93;;;;;;;;;;633080;23;904;-65
2022/10/13 00:10:16;;;;;;;15.82;10.73;;;;;;;;;;634158;23;803;-65
2022/10/13 00:10:35;;;;;;;15.57;10.80;;;;;;;;;;633685;23;931;-65
2022/10/13 00:10:51;;;;;;;16.40;11.20;;;;;;;;;;630248;23;966;-66
2022/10/13 00:11:15;;;;;;;16.48;11.20;;;;;;;;;;630318;23;888;-65
2022/10/13 00:11:30;;;;;;;16.45;11.40;;;;;;;;;;626985;23;1362;-65
2022/10/13 00:11:45;;;;;;;17.00;11.40;;;;;;;;;;626908;23;866;-65
2022/10/13 00:12:01;;;;;;;15.43;10.70;;;;;;;;;;625150;23;1180;-65
2022/10/13 00:12:16;;;;;;;15.00;10.38;;;;;;;;;;621864;23;800;-65
2022/10/13 00:12:34;;;;;;;14.50;10.47;;;;;;;;;;619182;23;891;-66
2022/10/13 00:12:50;;;;;;;16.55;10.65;;;;;;;;;;619942;23;1010;-65
2022/10/13 00:13:06;;;;;;;16.60;11.27;;;;;;;;;;621704;23;804;-65
2022/10/13 00:13:21;;;;;;;15.32;11.05;;;;;;;;;;623093;23;1033;-65
2022/10/13 00:13:37;;;;;;;15.50;10.93;;;;;;;;;;623885;23;1014;-65
2022/10/13 00:13:56;;;;;;;17.20;11.35;;;;;;;;;;624686;23;986;-65
2022/10/13 00:14:11;;;;;;;16.35;11.68;;;;;;;;;;629542;23;871;-65
2022/10/13 00:14:26;;;;;;;15.77;11.10;;;;;;;;;;630924;23;732;-65
2022/10/13 00:14:42;;;;;;;15.97;10.90;;;;;;;;;;629133;23;1339;-65
2022/10/13 00:14:57;;;;;;;14.88;10.48;;;;;;;;;;630560;23;906;-66
2022/10/13 00:15:12;;;;;;;13.87;10.20;;;;;;;;;;627783;23;858;-65
2022/10/13 00:15:27;;;;;;;13.37;10.37;;;;;;;;;;624568;23;1000;-68
2022/10/13 00:15:45;;;;;;;14.18;10.52;;;;;;;;;;625044;23;891;-66
2022/10/13 00:16:02;;;;;;;13.95;10.63;;;;;;;;;;624900;23;919;-66
2022/10/13 00:16:19;;;;;;;13.02;10.68;;;;;;;;;;624650;23;1013;-66
2022/10/13 00:16:35;;;;;;;14.32;10.88;;;;;;;;;;626456;23;955;-66
2022/10/13 00:16:50;;;;;;;14.77;10.47;;;;;;;;;;624350;23;955;-66
2022/10/13 00:17:05;;;;;;;14.43;10.43;;;;;;;;;;625981;23;904;-66
2022/10/13 00:17:21;;;;;;;13.70;10.57;;;;;;;;;;629377;23;820;-66
2022/10/13 00:17:36;;;;;;;13.43;10.70;;;;;;;;;;630626;23;958;-66
2022/10/13 00:17:51;;;;;;;14.33;10.60;;;;;;;;;;629890;23;834;-66
2022/10/13 00:18:07;;;;;;;15.45;10.77;;;;;;;;;;630604;23;1046;-66
2022/10/13 00:18:22;;;;;;;14.80;10.70;;;;;;;;;;631288;23;921;-66
2022/10/13 00:18:37;;;;;;;13.30;10.40;;;;;;;;;;631482;23;910;-66
2022/10/13 00:18:53;;;;;;;13.43;10.45;;;;;;;;;;624791;23;1399;-66
2022/10/13 00:19:09;;;;;;;14.07;10.15;;;;;;;;;;623395;23;1232;-66
2022/10/13 00:19:24;;;;;;;13.50;10.20;;;;;;;;;;621347;23;848;-66
2022/10/13 00:19:39;;;;;;;13.57;10.37;;;;;;;;;;622447;23;1520;-66
2022/10/13 00:19:54;;;;;;;15.43;10.70;;;;;;;;;;622483;23;887;-66
2022/10/13 00:20:10;;;;;;;15.27;10.65;;;;;;;;;;624835;23;950;-65
2022/10/13 00:20:26;;;;;;;14.95;10.20;;;;;;;;;;620759;23;951;-65
2022/10/13 00:20:48;;;;;;;15.90;10.10;;;;;;;;;;622595;23;972;-65
2022/10/13 00:21:11;;;;;;;14.88;9.95;;;;;;;;;;625636;23;855;-65
2022/10/13 00:21:27;;;;;;;15.55;9.98;;;;;;;;;;628250;23;871;-65
2022/10/13 00:21:42;;;;;;;14.50;9.83;;;;;;;;;;628944;23;1426;-65
2022/10/13 00:21:57;;;;;;;13.63;10.00;;;;;;;;;;630730;23;962;-65
2022/10/13 00:22:13;;;;;;;13.68;10.20;;;;;;;;;;630905;23;879;-66
2022/10/13 00:22:28;;;;;;;13.77;10.03;;;;;;;;;;631290;23;903;-65
2022/10/13 00:22:43;;;;;;;14.17;10.10;;;;;;;;;;626725;23;1259;-65
2022/10/13 00:22:58;;;;;;;14.93;10.20;;;;;;;;;;625941;23;978;-65
2022/10/13 00:23:15;;;;;;;15.53;10.50;;;;;;;;;;628231;23;761;-65
2022/10/13 00:23:32;;;;;;;17.05;10.90;;;;;;;;;;627875;23;930;-65
2022/10/13 00:23:48;;;;;;;16.95;10.85;;;;;;;;;;629784;23;880;-65
2022/10/13 00:24:04;;;;;;;16.48;10.50;;;;;;;;;;630803;23;923;-65
2022/10/13 00:24:19;;;;;;;15.13;10.33;;;;;;;;;;630675;23;883;-65
2022/10/13 00:24:34;;;;;;;14.68;10.57;;;;;;;;;;631128;23;942;-67
2022/10/13 00:24:51;;;;;;;15.50;10.50;;;;;;;;;;630815;23;930;-66
2022/10/13 00:25:07;;;;;;;15.18;10.80;;;;;;;;;;630402;23;1101;-66
2022/10/13 00:25:22;;;;;;;14.70;10.63;;;;;;;;;;630534;23;974;-66
2022/10/13 00:25:45;;;;;;;14.77;10.00;;;;;;;;;;631040;23;1446;-66
2022/10/13 00:26:06;;;;;;;15.95;10.40;;;;;;;;;;631382;23;2114;-65
2022/10/13 00:26:23;;;;;;;14.85;10.57;;;;;;;;;;629962;23;957;-66
2022/10/13 00:26:38;;;;;;;15.32;10.57;;;;;;;;;;627169;23;1331;-66
2022/10/13 00:26:53;;;;;;;15.40;10.83;;;;;;;;;;627809;23;986;-66
2022/10/13 00:27:09;;;;;;;17.75;11.02;;;;;;;;;;627644;23;875;-66
2022/10/13 00:27:24;;;;;;;15.27;10.57;;;;;;;;;;626907;23;890;-65
2022/10/13 00:27:39;;;;;;;12.00;10.52;;;;;;;;;;629725;23;957;-66
2022/10/13 00:27:55;;;;;;;13.07;10.40;;;;;;;;;;630807;23;782;-66
2022/10/13 00:28:10;;;;;;;12.67;10.43;;;;;;;;;;630904;23;858;-66
2022/10/13 00:28:26;;;;;;;13.45;10.80;;;;;;;;;;630524;23;933;-66
2022/10/13 00:28:41;;;;;;;13.90;10.63;;;;;;;;;;630424;23;835;-66
2022/10/13 00:28:56;;;;;;;14.00;10.63;;;;;;;;;;627592;23;1396;-66
2022/10/13 00:29:12;;;;;;;15.27;10.73;;;;;;;;;;627866;23;897;-66
2022/10/13 00:29:27;;;;;;;15.07;10.87;;;;;;;;;;628194;23;796;-66
2022/10/13 00:29:42;;;;;;;14.13;11.00;;;;;;;;;;626760;23;844;-66
2022/10/13 00:29:58;;;;;;;12.47;10.47;;;;;;;;;;627325;23;850;-66
2022/10/13 00:30:13;;;;;;;12.63;10.17;;;;;;;;;;627499;23;1304;-66
2022/10/13 00:30:33;;;;;;;13.38;10.63;;;;;;;;;;627983;23;874;-66
2022/10/13 00:30:48;;;;;;;13.80;10.88;;;;;;;;;;630923;23;934;-66
2022/10/13 00:31:16;;;;;;;13.73;10.63;;;;;;;;;;630331;23;1235;-66
2022/10/13 00:31:32;;;;;;;13.25;10.82;;;;;;;;;;630863;23;855;-66
2022/10/13 00:31:47;;;;;;;15.43;11.05;;;;;;;;;;630882;23;1001;-66
2022/10/13 00:32:03;;;;;;;16.53;10.90;;;;;;;;;;629118;23;877;-66
2022/10/13 00:32:18;;;;;;;14.63;10.50;;;;;;;;;;630174;23;883;-66
2022/10/13 00:32:33;;;;;;;14.13;10.93;;;;;;;;;;630396;23;989;-66
2022/10/13 00:32:49;;;;;;;14.50;11.27;;;;;;;;;;630524;23;826;-66
2022/10/13 00:33:04;;;;;;;13.63;10.90;;;;;;;;;;630479;23;1281;-66
2022/10/13 00:33:20;;;;;;;12.43;10.53;;;;;;;;;;627678;23;946;-66
2022/10/13 00:33:35;;;;;;;12.23;10.43;;;;;;;;;;627504;23;934;-66
2022/10/13 00:33:51;;;;;;;12.77;10.48;;;;;;;;;;627630;23;954;-66
2022/10/13 00:34:07;;;;;;;12.32;10.60;;;;;;;;;;627619;23;911;-66
2022/10/13 00:34:23;;;;;;;12.00;10.38;;;;;;;;;;627177;23;1080;-66
2022/10/13 00:34:38;;;;;;;12.37;10.13;;;;;;;;;;626810;23;987;-66
2022/10/13 00:34:54;;;;;;;12.82;10.15;;;;;;;;;;628765;23;865;-66
2022/10/13 00:35:09;;;;;;;13.33;10.43;;;;;;;;;;627843;23;1280;-66
2022/10/13 00:35:25;;;;;;;14.93;10.85;;;;;;;;;;626868;23;982;-66
2022/10/13 00:35:45;;;;;;;14.13;10.67;;;;;;;;;;626828;23;939;-66
2022/10/13 00:36:01;;;;;;;13.68;10.43;;;;;;;;;;627801;23;1005;-66
2022/10/13 00:36:16;;;;;;;13.10;10.17;;;;;;;;;;623948;23;857;-66
2022/10/13 00:36:31;;;;;;;12.93;10.20;;;;;;;;;;624783;23;867;-66
2022/10/13 00:36:47;;;;;;;14.07;10.30;;;;;;;;;;624637;23;801;-67
2022/10/13 00:37:02;;;;;;;14.32;10.27;;;;;;;;;;623143;23;856;-66
2022/10/13 00:37:18;;;;;;;14.00;10.67;;;;;;;;;;624160;23;859;-66
2022/10/13 00:37:33;;;;;;;14.77;10.75;;;;;;;;;;624681;23;847;-66
2022/10/13 00:37:48;;;;;;;14.10;10.80;;;;;;;;;;624319;23;883;-66
2022/10/13 00:38:04;;;;;;;14.23;11.10;;;;;;;;;;624837;23;1026;-66
2022/10/13 00:38:20;;;;;;;14.65;10.93;;;;;;;;;;627734;23;800;-66
2022/10/13 00:38:36;;;;;;;14.77;10.88;;;;;;;;;;628003;23;823;-66
2022/10/13 00:38:52;;;;;;;12.77;10.35;;;;;;;;;;629933;23;961;-66
2022/10/13 00:39:07;;;;;;;12.13;10.43;;;;;;;;;;630496;23;1159;-66
2022/10/13 00:39:22;;;;;;;13.30;10.50;;;;;;;;;;630977;23;918;-66
2022/10/13 00:39:38;;;;;;;15.00;10.90;;;;;;;;;;629971;23;1196;-65
2022/10/13 00:39:53;;;;;;;15.75;11.30;;;;;;;;;;629803;23;1014;-65
2022/10/13 00:40:09;;;;;;;14.50;10.90;;;;;;;;;;630747;23;779;-65
2022/10/13 00:40:24;;;;;;;15.07;11.00;;;;;;;;;;627220;23;1327;-65
2022/10/13 00:40:58;;;;;;;15.50;11.10;;;;;;;;;;627812;23;959;-66
2022/10/13 00:41:13;;;;;;;15.85;11.45;;;;;;;;;;624496;23;864;-66
2022/10/13 00:41:29;;;;;;;14.32;10.98;;;;;;;;;;625660;23;863;-65
2022/10/13 00:41:44;;;;;;;13.37;10.60;;;;;;;;;;627047;23;835;-66
2022/10/13 00:41:59;;;;;;;14.23;10.97;;;;;;;;;;626934;23;945;-65
2022/10/13 00:42:15;;;;;;;15.52;11.50;;;;;;;;;;625365;23;878;-65
2022/10/13 00:42:30;;;;;;;15.90;11.33;;;;;;;;;;627936;23;843;-65
2022/10/13 00:42:45;;;;;;;14.27;11.20;;;;;;;;;;626839;23;780;-66
2022/10/13 00:43:00;;;;;;;14.40;11.60;;;;;;;;;;627404;23;848;-65
2022/10/13 00:43:23;;;;;;;14.82;11.77;;;;;;;;;;629717;23;865;-66
2022/10/13 00:44:26;;;;;;;14.70;11.40;;;;;;;;;;627427;23;2132;-66
2022/10/13 00:45:05;;;;;;;13.60;10.82;;;;;;;;;;618283;23;956;-65
2022/10/13 00:45:28;;;;;;;14.77;11.27;;;;;;;;;;618184;23;1082;-66
2022/10/13 00:45:44;;;;;;;15.48;11.40;;;;;;;;;;621239;23;884;-65
2022/10/13 00:45:59;;;;;;;15.05;10.82;;;;;;;;;;620759;23;892;-66
2022/10/13 00:46:15;;;;;;;14.47;10.33;;;;;;;;;;621701;23;895;-65
2022/10/13 00:46:33;;;;;;;13.85;10.38;;;;;;;;;;630240;23;1036;-65
2022/10/13 00:46:48;;;;;;;13.48;10.30;;;;;;;;;;629940;23;1371;-66
2022/10/13 00:47:03;;;;;;;15.17;10.90;;;;;;;;;;626620;23;1324;-66
2022/10/13 00:47:20;;;;;;;15.13;10.80;;;;;;;;;;627681;23;1040;-66
2022/10/13 00:47:41;;;;;;;11.85;10.00;;;;;;;;;;627407;23;1121;-66
2022/10/13 00:48:00;;;;;;;13.60;10.25;;;;;;;;;;624575;23;1285;-67
2022/10/13 00:48:28;;;;;;;14.93;10.55;;;;;;;;;;623786;23;1490;-66
2022/10/13 00:48:45;;;;;;;15.20;10.73;;;;;;;;;;625772;23;1026;-66
2022/10/13 00:49:18;;;;;;;14.15;11.00;;;;;;;;;;624707;23;1491;-66
2022/10/13 00:49:33;;;;;;;15.07;11.75;;;;;;;;;;625085;23;926;-66
2022/10/13 00:49:49;;;;;;;15.50;11.80;;;;;;;;;;625568;23;1208;-66
2022/10/13 00:50:09;;;;;;;14.65;11.45;;;;;;;;;;628253;23;820;-65
2022/10/13 00:50:30;;;;;;;14.05;11.13;;;;;;;;;;627129;23;1116;-66
2022/10/13 00:50:46;;;;;;;16.17;11.65;;;;;;;;;;627127;23;937;-66
2022/10/13 00:51:01;;;;;;;16.83;11.77;;;;;;;;;;630504;23;890;-66
2022/10/13 00:51:20;;;;;;;16.05;11.40;;;;;;;;;;629599;23;2189;-66
2022/10/13 00:51:40;;;;;;;16.67;11.70;;;;;;;;;;630481;23;1453;-66
2022/10/13 00:51:56;;;;;;;15.32;11.60;;;;;;;;;;631074;23;840;-66
2022/10/13 00:52:13;;;;;;;17.83;11.40;;;;;;;;;;630266;23;871;-66
2022/10/13 00:52:31;;;;;;;17.30;11.60;;;;;;;;;;630078;23;851;-66
2022/10/13 00:52:48;;;;;;;15.68;11.93;;;;;;;;;;630196;23;823;-66
2022/10/13 00:53:05;;;;;;;16.38;12.23;;;;;;;;;;630982;23;819;-66
2022/10/13 00:53:26;;;;;;;16.15;11.95;;;;;;;;;;634317;23;846;-67
2022/10/13 00:53:42;;;;;;;16.05;11.95;;;;;;;;;;630874;23;1256;-66
2022/10/13 00:53:59;;;;;;;15.80;11.48;;;;;;;;;;630961;23;877;-66
2022/10/13 00:54:18;;;;;;;15.85;11.20;;;;;;;;;;630613;23;839;-66
2022/10/13 00:54:33;;;;;;;14.07;11.13;;;;;;;;;;627238;23;979;-66
2022/10/13 00:54:49;;;;;;;15.63;11.57;;;;;;;;;;624488;23;1193;-66
2022/10/13 00:55:06;;;;;;;18.20;12.30;;;;;;;;;;624189;23;938;-66
2022/10/13 00:55:25;;;;;;;18.23;12.40;;;;;;;;;;624746;23;1038;-66
2022/10/13 00:55:42;;;;;;;17.95;12.27;;;;;;;;;;627509;23;951;-66
2022/10/13 00:55:58;;;;;;;16.90;12.13;;;;;;;;;;625131;23;942;-66
2022/10/13 00:56:16;;;;;;;16.73;12.07;;;;;;;;;;624433;23;1100;-65
2022/10/13 00:56:34;;;;;;;17.75;12.02;;;;;;;;;;626528;23;789;-66
2022/10/13 00:56:51;;;;;;;17.02;12.13;;;;;;;;;;631100;23;942;-66
2022/10/13 00:57:08;;;;;;;17.35;11.85;;;;;;;;;;627161;23;1391;-66
2022/10/13 00:57:23;;;;;;;18.17;11.75;;;;;;;;;;626693;23;951;-66
2022/10/13 00:57:42;;;;;;;16.10;11.70;;;;;;;;;;627370;23;938;-66
2022/10/13 00:58:01;;;;;;;15.18;11.90;;;;;;;;;;630866;23;1088;-66
2022/10/13 00:58:18;;;;;;;16.48;11.82;;;;;;;;;;630961;23;1010;-66
2022/10/13 00:58:36;;;;;;;16.48;11.85;;;;;;;;;;630662;23;830;-66
2022/10/13 00:58:53;;;;;;;15.27;11.68;;;;;;;;;;630072;23;1034;-66
2022/10/13 00:59:17;;;;;;;15.63;11.98;;;;;;;;;;630846;23;854;-65
2022/10/13 00:59:33;;;;;;;16.02;11.55;;;;;;;;;;631160;23;839;-65
2022/10/13 00:59:50;;;;;;;15.27;11.35;;;;;;;;;;629530;23;1454;-65
2022/10/13 01:00:06;;;;;;;15.40;11.60;;;;;;;;;;629866;23;903;-65
2022/10/13 01:00:23;;;;;;;15.70;11.32;;;;;;;;;;630303;23;1239;-65
2022/10/13 01:00:38;;;;;;;16.13;11.10;;;;;;;;;;623956;23;898;-65
2022/10/13 01:00:53;;;;;;;16.17;11.40;;;;;;;;;;624790;23;958;-65
2022/10/13 01:01:09;;;;;;;15.43;11.27;;;;;;;;;;624707;23;895;-66
2022/10/13 01:01:24;;;;;;;14.43;10.80;;;;;;;;;;624156;23;876;-65
2022/10/13 01:01:39;;;;;;;13.00;10.57;;;;;;;;;;625592;23;867;-66
2022/10/13 01:01:57;;;;;;;13.37;10.87;;;;;;;;;;627389;23;860;-65
2022/10/13 01:02:13;;;;;;;16.30;12.02;;;;;;;;;;627791;23;790;-66
2022/10/13 01:02:31;;;;;;;14.87;11.87;;;;;;;;;;628286;23;956;-65
2022/10/13 01:02:46;;;;;;;14.38;11.65;;;;;;;;;;630656;23;832;-66
2022/10/13 01:03:02;;;;;;;14.33;11.50;;;;;;;;;;630975;23;954;-66
2022/10/13 01:03:19;;;;;;;13.98;11.27;;;;;;;;;;630452;23;1151;-65
2022/10/13 01:03:35;;;;;;;13.10;10.98;;;;;;;;;;630214;23;856;-66
2022/10/13 01:03:50;;;;;;;13.80;11.05;;;;;;;;;;631473;23;1010;-65
2022/10/13 01:04:05;;;;;;;14.37;11.20;;;;;;;;;;630618;23;1371;-65
2022/10/13 01:04:24;;;;;;;13.40;11.07;;;;;;;;;;626771;23;1303;-65
2022/10/13 01:04:42;;;;;;;14.45;11.20;;;;;;;;;;628009;23;954;-65
2022/10/13 01:04:59;;;;;;;15.40;11.30;;;;;;;;;;627813;23;862;-65
2022/10/13 01:05:15;;;;;;;14.55;11.13;;;;;;;;;;624713;23;1233;-65
2022/10/13 01:05:30;;;;;;;14.68;11.38;;;;;;;;;;622240;23;1269;-65
2022/10/13 01:05:49;;;;;;;14.15;11.20;;;;;;;;;;621771;23;1269;-65
2022/10/13 01:06:06;;;;;;;13.82;10.77;;;;;;;;;;623679;23;871;-65
2022/10/13 01:06:22;;;;;;;14.02;10.45;;;;;;;;;;628010;23;816;-65
2022/10/13 01:06:37;;;;;;;13.60;10.43;;;;;;;;;;624642;23;903;-65
2022/10/13 01:06:53;;;;;;;14.17;10.77;;;;;;;;;;621641;23;1304;-65
2022/10/13 01:07:09;;;;;;;13.98;10.73;;;;;;;;;;620866;23;871;-65
2022/10/13 01:07:24;;;;;;;14.82;10.75;;;;;;;;;;621746;23;809;-65
2022/10/13 01:07:40;;;;;;;15.43;11.18;;;;;;;;;;624471;23;855;-65
2022/10/13 01:07:56;;;;;;;15.87;11.57;;;;;;;;;;627769;23;767;-65
2022/10/13 01:08:13;;;;;;;15.68;11.70;;;;;;;;;;626510;23;1225;-66
2022/10/13 01:08:29;;;;;;;14.27;11.38;;;;;;;;;;629412;23;903;-66
2022/10/13 01:08:45;;;;;;;15.77;11.07;;;;;;;;;;629068;23;1227;-65
2022/10/13 01:09:00;;;;;;;16.08;11.30;;;;;;;;;;627371;23;970;-65
2022/10/13 01:09:15;;;;;;;14.80;11.60;;;;;;;;;;623358;23;1134;-65
2022/10/13 01:09:36;;;;;;;13.90;11.73;;;;;;;;;;621666;23;1201;-66
2022/10/13 01:09:51;;;;;;;15.05;11.73;;;;;;;;;;620935;23;927;-65
2022/10/13 01:10:07;;;;;;;15.73;11.32;;;;;;;;;;621587;23;917;-65
2022/10/13 01:10:42;;;;;;;14.73;11.00;;;;;;;;;;621415;23;979;-66
2022/10/13 01:10:58;;;;;;;13.65;10.68;;;;;;;;;;627221;23;1005;-66
2022/10/13 01:11:16;;;;;;;15.03;11.10;;;;;;;;;;626929;23;1997;-65
2022/10/13 01:11:39;;;;;;;14.95;10.75;;;;;;;;;;631431;23;1013;-66
2022/10/13 01:12:22;;;;;;;16.67;11.27;;;;;;;;;;627652;23;857;-66
2022/10/13 01:12:48;;;;;;;14.32;10.70;;;;;;;;;;626238;23;898;-65
2022/10/13 01:13:10;;;;;;;13.23;10.65;;;;;;;;;;627927;23;954;-66
2022/10/13 01:13:50;;;;;;;12.57;10.68;;;;;;;;;;630348;23;2208;-65
2022/10/13 01:14:24;;;;;;;14.43;10.70;;;;;;;;;;629538;23;895;-65
2022/10/13 01:14:50;;;;;;;14.18;10.50;;;;;;;;;;631022;23;1219;-65
2022/10/13 01:15:12;;;;;;;14.85;10.23;;;;;;;;;;627411;23;1233;-65
2022/10/13 01:15:34;;;;;;;12.88;10.40;;;;;;;;;;627516;23;1015;-66
2022/10/13 01:16:03;;;;;;;12.23;10.10;;;;;;;;;;627650;23;982;-65
2022/10/13 01:16:43;;;;;;;12.93;10.10;;;;;;;;;;630726;23;1232;-66
2022/10/13 01:17:13;;;;;;;14.90;10.70;;;;;;;;;;630970;23;812;-65
2022/10/13 01:17:40;;;;;;;13.15;10.50;;;;;;;;;;630284;23;823;-66
2022/10/13 01:17:55;;;;;;;13.68;10.90;;;;;;;;;;629907;23;1045;-65
2022/10/13 01:18:49;;;;;;;14.63;10.98;;;;;;;;;;631051;23;819;-65
2022/10/13 01:19:42;;;;;;;16.63;11.80;;;;;;;;;;624621;23;872;-66
2022/10/13 01:20:19;;;;;;;17.85;12.13;;;;;;;;;;630175;23;834;-66
2022/10/13 01:20:34;;;;;;;16.23;12.10;;;;;;;;;;630741;23;835;-66
2022/10/13 01:21:14;;;;;;;15.43;11.77;;;;;;;;;;630649;23;886;-66
2022/10/13 01:21:46;;;;;;;16.92;12.25;;;;;;;;;;629785;23;847;-66
2022/10/13 01:22:11;;;;;;;18.63;12.85;;;;;;;;;;631164;23;1097;-66
2022/10/13 01:22:26;;;;;;;17.58;12.35;;;;;;;;;;630442;23;965;-65
2022/10/13 01:23:11;;;;;;;19.30;12.70;;;;;;;;;;629753;23;1305;-66
2022/10/13 01:24:13;;;;;;;15.55;12.57;;;;;;;;;;630638;23;985;-66
2022/10/13 01:24:40;;;;;;;18.00;12.85;;;;;;;;;;621255;23;934;-66
2022/10/13 01:25:07;;;;;;;18.55;12.70;;;;;;;;;;624623;23;883;-66
2022/10/13 01:25:42;;;;;;;17.70;12.90;;;;;;;;;;623628;23;1061;-66
2022/10/13 01:26:08;;;;;;;18.83;13.07;;;;;;;;;;629705;23;1251;-66
2022/10/13 01:26:50;;;;;;;15.18;12.55;;;;;;;;;;630023;23;869;-66
2022/10/13 01:27:42;;;;;;;15.88;11.75;;;;;;;;;;627771;23;1087;-66
2022/10/13 01:28:03;;;;;;;18.95;12.57;;;;;;;;;;630822;23;1022;-66
2022/10/13 01:28:43;;;;;;;18.67;12.85;;;;;;;;;;630512;23;929;-66
2022/10/13 01:29:29;;;;;;;17.10;13.10;;;;;;;;;;627959;23;843;-66
2022/10/13 01:30:07;;;;;;;18.83;13.13;;;;;;;;;;630034;23;895;-66
2022/10/13 01:30:23;;;;;;;16.80;13.00;;;;;;;;;;630406;23;891;-67
2022/10/13 01:30:45;;;;;;;18.02;12.90;;;;;;;;;;626849;23;1469;-66
2022/10/13 01:31:17;;;;;;;18.70;12.73;;;;;;;;;;627027;23;1051;-66
2022/10/13 01:31:40;;;;;;;17.40;13.55;;;;;;;;;;627727;23;1026;-66
2022/10/13 01:32:05;;;;;;;18.00;13.45;;;;;;;;;;627611;23;1264;-66
2022/10/13 01:32:32;;;;;;;19.30;13.15;;;;;;;;;;626931;23;1072;-66
2022/10/13 01:32:47;;;;;;;19.10;13.90;;;;;;;;;;627244;23;867;-66
2022/10/13 01:33:24;;;;;;;18.60;13.75;;;;;;;;;;630811;23;1014;-66
2022/10/13 01:33:44;;;;;;;17.00;13.45;;;;;;;;;;630827;23;942;-66
2022/10/13 01:34:17;;;;;;;16.75;13.05;;;;;;;;;;630098;23;1344;-66
2022/10/13 01:35:01;;;;;;;16.98;13.07;;;;;;;;;;630774;23;866;-66
2022/10/13 01:35:54;;;;;;;15.82;12.38;;;;;;;;;;621103;23;1225;-66
2022/10/13 01:36:25;;;;;;;19.42;13.40;;;;;;;;;;610984;24;1291;-66
2022/10/13 01:36:55;;;;;;;16.77;13.25;;;;;;;;;;630838;23;1240;-66
2022/10/13 01:37:22;;;;;;;19.23;12.73;;;;;;;;;;630934;23;1025;-66
2022/10/13 01:37:46;;;;;;;16.33;12.77;;;;;;;;;;630571;23;883;-66
2022/10/13 01:38:07;;;;;;;17.27;13.10;;;;;;;;;;632001;23;950;-66
2022/10/13 01:38:27;;;;;;;17.50;12.80;;;;;;;;;;630751;23;1351;-66
2022/10/13 01:39:00;;;;;;;18.58;13.05;;;;;;;;;;631030;23;949;-67
2022/10/13 01:39:21;;;;;;;16.30;13.10;;;;;;;;;;629396;23;992;-66
2022/10/13 01:39:45;;;;;;;16.83;12.95;;;;;;;;;;630470;23;949;-66
2022/10/13 01:40:19;;;;;;;16.90;12.65;;;;;;;;;;630705;23;808;-66
2022/10/13 01:40:44;;;;;;;16.48;12.77;;;;;;;;;;630930;23;934;-65
2022/10/13 01:41:37;;;;;;;16.90;12.90;;;;;;;;;;630469;23;1276;-66
2022/10/13 01:41:59;;;;;;;16.15;12.57;;;;;;;;;;630621;23;965;-66
2022/10/13 01:42:21;;;;;;;17.75;13.00;;;;;;;;;;627610;23;1932;-66
2022/10/13 01:43:06;;;;;;;18.38;13.25;;;;;;;;;;626233;23;1239;-66
2022/10/13 01:43:26;;;;;;;18.35;13.32;;;;;;;;;;627808;23;1045;-66
2022/10/13 01:43:51;;;;;;;16.98;13.35;;;;;;;;;;626920;23;1552;-65
2022/10/13 01:44:15;;;;;;;19.55;13.02;;;;;;;;;;627802;23;1769;-65
2022/10/13 01:44:35;;;;;;;16.55;12.70;;;;;;;;;;630134;23;911;-65
2022/10/13 01:44:56;;;;;;;15.05;12.32;;;;;;;;;;630671;23;859;-65
2022/10/13 01:45:16;;;;;;;16.90;12.75;;;;;;;;;;631660;23;925;-65
2022/10/13 01:45:39;;;;;;;17.73;12.75;;;;;;;;;;629285;23;1967;-65
2022/10/13 01:46:02;;;;;;;15.23;12.05;;;;;;;;;;628310;23;1155;-66
2022/10/13 01:46:22;;;;;;;14.80;12.38;;;;;;;;;;630490;23;890;-65
2022/10/13 01:46:39;;;;;;;14.52;11.90;;;;;;;;;;630672;23;799;-65
2022/10/13 01:46:55;;;;;;;15.27;11.90;;;;;;;;;;627956;23;844;-65
2022/10/13 01:47:14;;;;;;;14.52;11.77;;;;;;;;;;627633;23;931;-65
2022/10/13 01:47:32;;;;;;;16.45;11.60;;;;;;;;;;628556;23;1252;-66
2022/10/13 01:47:49;;;;;;;17.33;11.50;;;;;;;;;;630451;23;974;-65
2022/10/13 01:48:05;;;;;;;15.98;11.52;;;;;;;;;;629804;23;861;-65
2022/10/13 01:48:21;;;;;;;15.60;11.65;;;;;;;;;;629922;23;969;-65
2022/10/13 01:48:39;;;;;;;15.93;12.20;;;;;;;;;;627972;23;1158;-66
2022/10/13 01:48:58;;;;;;;15.23;12.00;;;;;;;;;;626690;23;1300;-65
2022/10/13 01:49:17;;;;;;;14.48;11.40;;;;;;;;;;627761;23;843;-66
2022/10/13 01:49:34;;;;;;;16.05;11.52;;;;;;;;;;626899;23;792;-67
2022/10/13 01:49:52;;;;;;;16.55;11.82;;;;;;;;;;626465;23;866;-65
2022/10/13 01:50:08;;;;;;;16.10;12.13;;;;;;;;;;627169;23;926;-66
2022/10/13 01:50:23;;;;;;;15.82;12.48;;;;;;;;;;627039;23;1300;-66
2022/10/13 01:50:38;;;;;;;15.37;12.53;;;;;;;;;;629944;23;902;-65
2022/10/13 01:50:57;;;;;;;14.67;12.43;;;;;;;;;;633038;23;1013;-65
2022/10/13 01:51:16;;;;;;;17.25;12.65;;;;;;;;;;629602;23;945;-66
2022/10/13 01:51:34;;;;;;;18.00;12.55;;;;;;;;;;629977;23;1028;-66
2022/10/13 01:51:51;;;;;;;16.63;12.48;;;;;;;;;;630280;23;1013;-66
2022/10/13 01:52:12;;;;;;;16.13;12.25;;;;;;;;;;630911;23;1182;-66
2022/10/13 01:52:34;;;;;;;15.57;12.10;;;;;;;;;;630407;23;958;-66
2022/10/13 01:52:51;;;;;;;15.70;12.10;;;;;;;;;;630646;23;866;-66
2022/10/13 01:53:07;;;;;;;16.27;11.98;;;;;;;;;;628926;23;1014;-67
2022/10/13 01:53:23;;;;;;;15.05;11.80;;;;;;;;;;630023;23;1284;-65
2022/10/13 01:53:40;;;;;;;16.23;12.23;;;;;;;;;;630671;23;1020;-66
2022/10/13 01:53:55;;;;;;;17.60;12.70;;;;;;;;;;630533;23;885;-66
2022/10/13 01:54:10;;;;;;;16.80;12.60;;;;;;;;;;630671;23;954;-65
2022/10/13 01:54:25;;;;;;;17.87;12.40;;;;;;;;;;630021;23;950;-66
2022/10/13 01:54:41;;;;;;;18.30;12.47;;;;;;;;;;630783;23;935;-66
2022/10/13 01:54:56;;;;;;;15.98;12.25;;;;;;;;;;628665;23;958;-66
2022/10/13 01:55:12;;;;;;;16.47;12.40;;;;;;;;;;629674;23;957;-65
2022/10/13 01:55:28;;;;;;;17.85;12.80;;;;;;;;;;630398;23;1318;-66
2022/10/13 01:55:53;;;;;;;17.20;12.88;;;;;;;;;;630742;23;940;-66
2022/10/13 01:56:08;;;;;;;14.48;12.00;;;;;;;;;;626792;23;970;-65
2022/10/13 01:56:23;;;;;;;14.23;11.30;;;;;;;;;;624825;23;1178;-66
2022/10/13 01:56:39;;;;;;;15.63;11.40;;;;;;;;;;623852;23;899;-65
2022/10/13 01:56:55;;;;;;;16.15;11.82;;;;;;;;;;627177;23;812;-66
2022/10/13 01:57:31;;;;;;;15.88;12.05;;;;;;;;;;626945;23;1047;-66
2022/10/13 01:57:46;;;;;;;16.52;12.48;;;;;;;;;;627245;23;852;-65
2022/10/13 01:58:02;;;;;;;15.70;12.40;;;;;;;;;;628949;23;855;-66
2022/10/13 01:58:17;;;;;;;15.52;12.20;;;;;;;;;;630926;23;1025;-66